createdAt,value
2018-04-17T00:00:46.342Z,0
2018-04-17T00:01:47.708Z,0
2018-04-17T00:02:49.087Z,0
2018-04-17T00:03:50.445Z,0
2018-04-17T00:04:51.787Z,0
2018-04-17T00:05:53.152Z,0
2018-04-17T00:06:54.506Z,0
2018-04-17T00:07:55.863Z,0
2018-04-17T00:08:57.217Z,0
2018-04-17T00:09:58.568Z,0
2018-04-17T00:10:59.920Z,0
2018-04-17T00:12:01.281Z,0
2018-04-17T00:13:02.641Z,0
2018-04-17T00:14:04.003Z,0
2018-04-17T00:15:05.356Z,0
2018-04-17T00:16:06.712Z,0
2018-04-17T00:17:08.070Z,0
2018-04-17T00:18:09.426Z,0
2018-04-17T00:19:10.773Z,0
2018-04-17T00:20:12.130Z,0
2018-04-17T00:21:13.488Z,0
2018-04-17T00:22:14.842Z,0
2018-04-17T00:23:16.199Z,0
2018-04-17T00:24:17.551Z,0
2018-04-17T00:25:18.896Z,0
2018-04-17T00:26:20.257Z,0
2018-04-17T00:27:21.608Z,0
2018-04-17T00:28:22.971Z,0
2018-04-17T00:29:24.336Z,0
2018-04-17T00:30:25.695Z,0
2018-04-17T00:31:27.051Z,0
2018-04-17T00:32:28.407Z,0
2018-04-17T00:33:29.767Z,0
2018-04-17T00:34:31.124Z,0
2018-04-17T00:35:32.480Z,0
2018-04-17T00:36:33.838Z,0
2018-04-17T00:37:35.197Z,0
2018-04-17T00:38:36.546Z,0
2018-04-17T00:39:37.903Z,0
2018-04-17T00:40:39.251Z,0
2018-04-17T00:41:40.603Z,0
2018-04-17T00:42:41.964Z,0
2018-04-17T00:43:43.882Z,0
2018-04-17T00:44:45.238Z,0
2018-04-17T00:45:46.584Z,0
2018-04-17T00:46:47.937Z,0
2018-04-17T00:47:49.294Z,0
2018-04-17T00:48:50.661Z,0
2018-04-17T00:49:52.011Z,0
2018-04-17T00:50:53.373Z,0
2018-04-17T00:51:54.728Z,0
2018-04-17T00:52:56.089Z,0
2018-04-17T00:53:57.440Z,0
2018-04-17T00:54:58.797Z,0
2018-04-17T00:56:00.155Z,0
2018-04-17T00:57:01.521Z,0
2018-04-17T00:58:02.867Z,0
2018-04-17T00:59:04.233Z,0
2018-04-17T01:00:05.588Z,0
2018-04-17T01:01:06.941Z,0
2018-04-17T01:02:08.304Z,0
2018-04-17T01:03:09.648Z,0
2018-04-17T01:04:11.045Z,0
2018-04-17T01:05:12.358Z,0
2018-04-17T01:06:13.712Z,0
2018-04-17T01:07:15.066Z,0
2018-04-17T01:08:16.421Z,0
2018-04-17T01:09:17.786Z,0
2018-04-17T01:10:19.140Z,0
2018-04-17T01:11:20.497Z,0
2018-04-17T01:12:21.856Z,0
2018-04-17T01:13:23.215Z,0
2018-04-17T01:14:24.561Z,0
2018-04-17T01:15:25.908Z,0
2018-04-17T01:16:27.275Z,0
2018-04-17T01:17:28.632Z,0
2018-04-17T01:18:29.979Z,0
2018-04-17T01:19:31.336Z,0
2018-04-17T01:20:32.701Z,0
2018-04-17T01:21:34.049Z,0
2018-04-17T01:22:35.408Z,0
2018-04-17T01:23:36.765Z,0
2018-04-17T01:24:38.112Z,0
2018-04-17T01:25:39.466Z,0
2018-04-17T01:26:40.829Z,0
2018-04-17T01:27:42.179Z,0
2018-04-17T01:28:43.545Z,0
2018-04-17T01:29:44.892Z,0
2018-04-17T01:30:46.240Z,0
2018-04-17T01:31:47.598Z,0
2018-04-17T01:32:48.948Z,0
2018-04-17T01:33:50.309Z,0
2018-04-17T01:34:51.661Z,0
2018-04-17T01:35:53.013Z,0
2018-04-17T01:36:54.373Z,0
2018-04-17T01:37:55.734Z,0
2018-04-17T01:38:57.093Z,0
2018-04-17T01:39:58.444Z,0
2018-04-17T01:40:59.803Z,0
2018-04-17T01:42:01.156Z,0
2018-04-17T01:43:02.506Z,0
2018-04-17T01:44:03.871Z,0
2018-04-17T01:45:05.223Z,0
2018-04-17T01:46:06.581Z,0
2018-04-17T01:47:07.944Z,0
2018-04-17T01:48:09.291Z,0
2018-04-17T01:49:10.643Z,0
2018-04-17T01:50:12.002Z,0
2018-04-17T01:51:13.356Z,0
2018-04-17T01:52:14.708Z,0
2018-04-17T01:53:16.064Z,0
2018-04-17T01:54:17.417Z,0
2018-04-17T01:55:18.777Z,0
2018-04-17T01:56:20.129Z,0
2018-04-17T01:57:21.473Z,0
2018-04-17T01:58:22.836Z,0
2018-04-17T01:59:24.966Z,0
2018-04-17T02:00:26.322Z,0
2018-04-17T02:01:27.690Z,0
2018-04-17T02:02:36.000Z,0
2018-04-17T02:03:37.353Z,0
2018-04-17T02:04:38.700Z,0
2018-04-17T02:05:40.060Z,0
2018-04-17T02:06:41.441Z,0
2018-04-17T02:07:42.791Z,0
2018-04-17T02:08:44.142Z,0
2018-04-17T02:09:45.500Z,0
2018-04-17T02:10:46.850Z,0
2018-04-17T02:11:48.207Z,0
2018-04-17T02:12:49.573Z,0
2018-04-17T02:13:50.925Z,0
2018-04-17T02:14:52.276Z,0
2018-04-17T02:15:53.632Z,0
2018-04-17T02:16:54.991Z,0
2018-04-17T02:17:56.339Z,0
2018-04-17T02:18:57.687Z,0
2018-04-17T02:19:59.043Z,0
2018-04-17T02:21:00.391Z,0
2018-04-17T02:22:01.748Z,0
2018-04-17T02:23:03.108Z,0
2018-04-17T02:24:04.459Z,0
2018-04-17T02:25:05.807Z,0
2018-04-17T02:26:07.153Z,0
2018-04-17T02:27:08.511Z,0
2018-04-17T02:28:09.869Z,0
2018-04-17T02:29:11.225Z,0
2018-04-17T02:30:12.573Z,0
2018-04-17T02:31:13.924Z,0
2018-04-17T02:32:15.285Z,0
2018-04-17T02:33:16.631Z,0
2018-04-17T02:34:17.981Z,0
2018-04-17T02:35:19.337Z,0
2018-04-17T02:36:20.682Z,0
2018-04-17T02:37:22.049Z,0
2018-04-17T02:38:23.402Z,0
2018-04-17T02:39:24.760Z,0
2018-04-17T02:40:26.120Z,0
2018-04-17T02:41:27.592Z,0
2018-04-17T02:42:28.946Z,0
2018-04-17T02:43:30.307Z,0
2018-04-17T02:44:31.663Z,0
2018-04-17T02:45:33.014Z,0
2018-04-17T02:46:34.366Z,0
2018-04-17T02:47:35.724Z,0
2018-04-17T02:48:37.078Z,0
2018-04-17T02:49:38.426Z,0
2018-04-17T02:50:39.789Z,0
2018-04-17T02:51:41.143Z,0
2018-04-17T02:52:42.495Z,0
2018-04-17T02:53:43.836Z,0
2018-04-17T02:54:45.201Z,0
2018-04-17T02:55:46.549Z,0
2018-04-17T02:56:47.906Z,0
2018-04-17T02:57:49.256Z,0
2018-04-17T02:58:50.616Z,0
2018-04-17T02:59:51.971Z,0
2018-04-17T03:00:53.321Z,0
2018-04-17T03:01:54.789Z,0
2018-04-17T03:02:56.140Z,0
2018-04-17T03:03:57.487Z,0
2018-04-17T03:04:58.841Z,0
2018-04-17T03:06:00.196Z,0
2018-04-17T03:07:01.552Z,0
2018-04-17T03:08:03.551Z,0
2018-04-17T03:09:04.905Z,0
2018-04-17T03:10:06.263Z,0
2018-04-17T03:11:07.620Z,0
2018-04-17T03:12:08.977Z,0
2018-04-17T03:13:10.331Z,0
2018-04-17T03:14:11.683Z,0
2018-04-17T03:15:13.037Z,0
2018-04-17T03:16:14.389Z,0
2018-04-17T03:17:15.736Z,0
2018-04-17T03:18:17.092Z,0
2018-04-17T03:19:18.441Z,0
2018-04-17T03:20:19.789Z,0
2018-04-17T03:21:21.147Z,0
2018-04-17T03:22:22.497Z,0
2018-04-17T03:23:23.843Z,0
2018-04-17T03:24:25.202Z,0
2018-04-17T03:25:26.542Z,0
2018-04-17T03:26:27.913Z,0
2018-04-17T03:27:29.249Z,0
2018-04-17T03:28:30.602Z,0
2018-04-17T03:29:31.960Z,0
2018-04-17T03:30:33.309Z,0
2018-04-17T03:31:34.663Z,0
2018-04-17T03:32:36.012Z,0
2018-04-17T03:33:37.373Z,0
2018-04-17T03:34:38.730Z,0
2018-04-17T03:35:40.077Z,0
2018-04-17T03:36:41.435Z,0
2018-04-17T03:37:42.832Z,0
2018-04-17T03:38:44.144Z,0
2018-04-17T03:39:45.504Z,0
2018-04-17T03:40:46.846Z,0
2018-04-17T03:41:48.196Z,0
2018-04-17T03:42:49.547Z,0
2018-04-17T03:43:50.910Z,0
2018-04-17T03:44:52.248Z,0
2018-04-17T03:45:54.493Z,0
2018-04-17T03:46:55.852Z,0
2018-04-17T03:47:57.207Z,0
2018-04-17T03:48:58.555Z,0
2018-04-17T03:49:59.911Z,0
2018-04-17T03:51:01.264Z,0
2018-04-17T03:52:02.621Z,0
2018-04-17T03:53:03.970Z,0
2018-04-17T03:54:05.317Z,0
2018-04-17T03:55:06.672Z,0
2018-04-17T03:56:08.025Z,0
2018-04-17T03:57:09.381Z,4
2018-04-17T03:58:10.737Z,4
2018-04-17T03:59:12.088Z,0
2018-04-17T04:00:13.438Z,4
2018-04-17T04:01:14.790Z,8
2018-04-17T04:02:16.143Z,4
2018-04-17T04:03:17.496Z,8
2018-04-17T04:04:18.852Z,8
2018-04-17T04:05:20.201Z,12
2018-04-17T04:06:21.550Z,16
2018-04-17T04:07:22.900Z,16
2018-04-17T04:08:24.255Z,20
2018-04-17T04:09:25.625Z,24
2018-04-17T04:10:26.965Z,28
2018-04-17T04:11:28.333Z,36
2018-04-17T04:12:29.681Z,40
2018-04-17T04:13:31.035Z,48
2018-04-17T04:14:32.384Z,60
2018-04-17T04:15:33.745Z,68
2018-04-17T04:16:35.087Z,80
2018-04-17T04:17:36.446Z,96
2018-04-17T04:18:37.803Z,108
2018-04-17T04:19:39.165Z,124
2018-04-17T04:20:40.520Z,144
2018-04-17T04:21:41.878Z,168
2018-04-17T04:22:43.228Z,192
2018-04-17T04:23:44.581Z,212
2018-04-17T04:24:45.945Z,240
2018-04-17T04:25:47.287Z,268
2018-04-17T04:26:48.651Z,304
2018-04-17T04:27:49.998Z,340
2018-04-17T04:28:51.356Z,376
2018-04-17T04:29:52.715Z,420
2018-04-17T04:30:54.063Z,456
2018-04-17T04:31:55.425Z,500
2018-04-17T04:32:56.773Z,552
2018-04-17T04:33:58.121Z,600
2018-04-17T04:34:59.477Z,656
2018-04-17T04:36:00.831Z,708
2018-04-17T04:37:02.189Z,764
2018-04-17T04:38:03.544Z,824
2018-04-17T04:39:04.908Z,884
2018-04-17T04:40:06.261Z,948
2018-04-17T04:41:07.626Z,1016
2018-04-17T04:42:08.975Z,1088
2018-04-17T04:43:10.332Z,1152
2018-04-17T04:44:11.678Z,1224
2018-04-17T04:45:13.043Z,1296
2018-04-17T04:46:14.411Z,1372
2018-04-17T04:47:15.767Z,1456
2018-04-17T04:48:17.117Z,1528
2018-04-17T04:49:18.476Z,1612
2018-04-17T04:50:19.833Z,1692
2018-04-17T04:51:21.184Z,1776
2018-04-17T04:52:22.544Z,1864
2018-04-17T04:53:23.906Z,1948
2018-04-17T04:54:25.275Z,2036
2018-04-17T04:55:26.639Z,2124
2018-04-17T04:56:27.999Z,2208
2018-04-17T04:57:29.347Z,2300
2018-04-17T04:58:30.705Z,2392
2018-04-17T04:59:32.069Z,2480
2018-04-17T05:00:33.426Z,2568
2018-04-17T05:01:34.797Z,2660
2018-04-17T05:02:36.141Z,2748
2018-04-17T05:03:37.493Z,2840
2018-04-17T05:04:38.851Z,2932
2018-04-17T05:05:40.217Z,3020
2018-04-17T05:06:41.566Z,3108
2018-04-17T05:07:42.922Z,3200
2018-04-17T05:08:44.290Z,3292
2018-04-17T05:09:45.648Z,3380
2018-04-17T05:10:47.005Z,3468
2018-04-17T05:11:48.374Z,3564
2018-04-17T05:12:49.758Z,3652
2018-04-17T05:13:51.089Z,3740
2018-04-17T05:14:52.455Z,3828
2018-04-17T05:15:54.662Z,3912
2018-04-17T05:16:56.020Z,4000
2018-04-17T05:17:57.377Z,4080
2018-04-17T05:18:58.746Z,4160
2018-04-17T05:20:00.179Z,4240
2018-04-17T05:21:01.551Z,4324
2018-04-17T05:22:02.904Z,4396
2018-04-17T05:23:04.269Z,4476
2018-04-17T05:24:05.618Z,4552
2018-04-17T05:25:06.982Z,4624
2018-04-17T05:26:08.334Z,4696
2018-04-17T05:27:09.694Z,4764
2018-04-17T05:28:11.069Z,4844
2018-04-17T05:29:12.435Z,4916
2018-04-17T05:30:13.785Z,4984
2018-04-17T05:31:15.147Z,5092
2018-04-17T05:32:16.501Z,5164
2018-04-17T05:33:17.863Z,5228
2018-04-17T05:34:19.230Z,5292
2018-04-17T05:35:20.592Z,5356
2018-04-17T05:36:21.948Z,5416
2018-04-17T05:37:23.322Z,5488
2018-04-17T05:38:24.680Z,5552
2018-04-17T05:39:26.054Z,5620
2018-04-17T05:40:27.412Z,5688
2018-04-17T05:41:28.778Z,5760
2018-04-17T05:42:30.149Z,5828
2018-04-17T05:43:31.509Z,5896
2018-04-17T05:44:32.886Z,5964
2018-04-17T05:45:34.244Z,6028
2018-04-17T05:46:35.616Z,6084
2018-04-17T05:47:36.976Z,6148
2018-04-17T05:48:38.326Z,6216
2018-04-17T05:49:39.702Z,6280
2018-04-17T05:50:41.060Z,6352
2018-04-17T05:51:42.461Z,6416
2018-04-17T05:52:43.807Z,6488
2018-04-17T05:53:45.174Z,6556
2018-04-17T05:54:46.549Z,6616
2018-04-17T05:55:47.928Z,6680
2018-04-17T05:56:49.265Z,6740
2018-04-17T05:57:50.579Z,6796
2018-04-17T05:58:51.945Z,6852
2018-04-17T05:59:53.306Z,6916
2018-04-17T06:00:54.662Z,6968
2018-04-17T06:01:56.027Z,7028
2018-04-17T06:02:57.423Z,7080
2018-04-17T06:03:58.782Z,7136
2018-04-17T06:05:00.145Z,7184
2018-04-17T06:06:01.513Z,7236
2018-04-17T06:07:02.871Z,7288
2018-04-17T06:08:04.271Z,7332
2018-04-17T06:09:05.634Z,7384
2018-04-17T06:10:06.991Z,7436
2018-04-17T06:11:08.354Z,7496
2018-04-17T06:12:09.731Z,7556
2018-04-17T06:13:11.090Z,7616
2018-04-17T06:14:12.453Z,7680
2018-04-17T06:15:13.818Z,7748
2018-04-17T06:16:15.174Z,7816
2018-04-17T06:17:16.525Z,7896
2018-04-17T06:18:17.902Z,7972
2018-04-17T06:19:20.149Z,8048
2018-04-17T06:20:21.501Z,8124
2018-04-17T06:21:22.874Z,8192
2018-04-17T06:22:24.232Z,8260
2018-04-17T06:23:25.597Z,8320
2018-04-17T06:24:26.948Z,8392
2018-04-17T06:25:28.302Z,8576
2018-04-17T06:26:29.666Z,9004
2018-04-17T06:27:31.029Z,10628
2018-04-17T06:28:32.406Z,12092
2018-04-17T06:29:33.788Z,12356
2018-04-17T06:30:35.151Z,12500
2018-04-17T06:31:36.684Z,12668
2018-04-17T06:32:38.048Z,12844
2018-04-17T06:33:39.408Z,13072
2018-04-17T06:34:40.776Z,13356
2018-04-17T06:35:42.159Z,13832
2018-04-17T06:36:43.525Z,14396
2018-04-17T06:37:44.877Z,14992
2018-04-17T06:38:46.245Z,15436
2018-04-17T06:39:48.100Z,16052
2018-04-17T06:40:49.470Z,17236
2018-04-17T06:41:50.878Z,18576
2018-04-17T06:42:52.307Z,21632
2018-04-17T06:43:54.664Z,27072
2018-04-17T06:44:56.045Z,31904
2018-04-17T06:45:57.410Z,35936
2018-04-17T06:47:00.629Z,38208
2018-04-17T06:48:01.958Z,36256
2018-04-17T06:49:03.373Z,33344
2018-04-17T06:50:04.722Z,35040
2018-04-17T06:51:06.092Z,39744
2018-04-17T06:52:07.485Z,41056
2018-04-17T06:53:08.845Z,39616
2018-04-17T06:54:10.232Z,42304
2018-04-17T06:55:11.600Z,48448
2018-04-17T06:56:13.086Z,55456
2018-04-17T06:57:14.465Z,58912
2018-04-17T06:58:15.829Z,60416
2018-04-17T06:59:17.210Z,70016
2018-04-17T07:00:18.574Z,70848
2018-04-17T07:01:19.947Z,64256
2018-04-17T07:02:21.439Z,64512
2018-04-17T07:03:22.859Z,63968
2018-04-17T07:04:24.182Z,59840
2018-04-17T07:05:25.557Z,57728
2018-04-17T07:06:26.935Z,54336
2018-04-17T07:07:28.303Z,52032
2018-04-17T07:08:29.726Z,48192
2018-04-17T07:09:31.063Z,43904
2018-04-17T07:10:32.456Z,42176
2018-04-17T07:11:33.840Z,43584
2018-04-17T07:12:35.197Z,42176
2018-04-17T07:13:36.596Z,41472
2018-04-17T07:14:37.973Z,42432
2018-04-17T07:15:39.345Z,40000
2018-04-17T07:16:40.723Z,37856
2018-04-17T07:17:42.113Z,36832
2018-04-17T07:18:43.496Z,36224
2018-04-17T07:19:44.855Z,37280
2018-04-17T07:20:46.270Z,36448
2018-04-17T07:21:47.639Z,33472
2018-04-17T07:22:49.028Z,34400
2018-04-17T07:23:50.409Z,35264
2018-04-17T07:24:51.797Z,35456
2018-04-17T07:25:53.175Z,36256
2018-04-17T07:26:54.561Z,36864
2018-04-17T07:27:55.942Z,35872
2018-04-17T07:28:57.330Z,34272
2018-04-17T07:29:58.706Z,33760
2018-04-17T07:31:00.105Z,34816
2018-04-17T07:32:01.476Z,34304
2018-04-17T07:33:02.843Z,35584
2018-04-17T07:34:04.226Z,37184
2018-04-17T07:35:05.606Z,39200
2018-04-17T07:36:06.987Z,40896
2018-04-17T07:37:08.376Z,42976
2018-04-17T07:38:09.755Z,42752
2018-04-17T07:39:11.134Z,40800
2018-04-17T07:40:12.504Z,40000
2018-04-17T07:41:13.880Z,40896
2018-04-17T07:42:15.256Z,44256
2018-04-17T07:43:16.633Z,46528
2018-04-17T07:44:18.020Z,44128
2018-04-17T07:45:19.393Z,40768
2018-04-17T07:46:20.778Z,41472
2018-04-17T07:47:22.160Z,43904
2018-04-17T07:48:23.520Z,47328
2018-04-17T07:49:24.901Z,54720
2018-04-17T07:50:26.287Z,58368
2018-04-17T07:51:27.664Z,57536
2018-04-17T07:52:29.044Z,52352
2018-04-17T07:53:30.430Z,45408
2018-04-17T07:54:31.811Z,39680
2018-04-17T07:55:33.188Z,35808
2018-04-17T07:56:34.577Z,33408
2018-04-17T07:57:35.963Z,32704
2018-04-17T07:58:37.340Z,31680
2018-04-17T07:59:38.710Z,30240
2018-04-17T08:00:40.129Z,29536
2018-04-17T08:01:41.504Z,29056
2018-04-17T08:02:42.905Z,28832
2018-04-17T08:03:44.282Z,28704
2018-04-17T08:04:45.665Z,28736
2018-04-17T08:05:47.050Z,28608
2018-04-17T08:06:48.432Z,28768
2018-04-17T08:07:49.819Z,28800
2018-04-17T08:08:51.204Z,28800
2018-04-17T08:09:52.577Z,28800
2018-04-17T08:10:53.950Z,28864
2018-04-17T08:11:55.375Z,28928
2018-04-17T08:12:56.735Z,29024
2018-04-17T08:13:58.129Z,29088
2018-04-17T08:14:59.504Z,29280
2018-04-17T08:16:00.887Z,29344
2018-04-17T08:17:02.272Z,29408
2018-04-17T08:18:03.686Z,29344
2018-04-17T08:19:05.071Z,29312
2018-04-17T08:20:06.445Z,29312
2018-04-17T08:21:07.823Z,29184
2018-04-17T08:22:09.204Z,29152
2018-04-17T08:23:10.657Z,29024
2018-04-17T08:24:12.152Z,28960
2018-04-17T08:25:13.540Z,29184
2018-04-17T08:26:14.942Z,29536
2018-04-17T08:27:16.323Z,29664
2018-04-17T08:28:17.699Z,29760
2018-04-17T08:29:19.086Z,30016
2018-04-17T08:30:20.468Z,30208
2018-04-17T08:31:21.833Z,30688
2018-04-17T08:32:23.225Z,34752
2018-04-17T08:33:24.613Z,54208
2018-04-17T08:34:26.007Z,82112
2018-04-17T08:35:27.385Z,88192
2018-04-17T08:36:28.811Z,85120
2018-04-17T08:37:30.177Z,84032
2018-04-17T08:38:31.572Z,80608
2018-04-17T08:39:32.956Z,80224
2018-04-17T08:40:34.344Z,80960
2018-04-17T08:41:35.909Z,81344
2018-04-17T08:42:37.302Z,78944
2018-04-17T08:43:38.691Z,77920
2018-04-17T08:44:40.090Z,80544
2018-04-17T08:45:41.465Z,79840
2018-04-17T08:46:42.845Z,78912
2018-04-17T08:47:44.223Z,79808
2018-04-17T08:48:45.619Z,79040
2018-04-17T08:49:47.013Z,81408
2018-04-17T08:50:48.383Z,83040
2018-04-17T08:51:49.797Z,81408
2018-04-17T08:52:51.223Z,82464
2018-04-17T08:53:52.603Z,83584
2018-04-17T08:54:54.913Z,84416
2018-04-17T08:55:56.289Z,83424
2018-04-17T08:56:57.689Z,83616
2018-04-17T08:57:59.081Z,85600
2018-04-17T08:59:00.458Z,86592
2018-04-17T09:00:01.841Z,86464
2018-04-17T09:01:03.230Z,88160
2018-04-17T09:02:04.606Z,87872
2018-04-17T09:03:05.986Z,86816
2018-04-17T09:04:07.375Z,85792
2018-04-17T09:05:08.756Z,86496
2018-04-17T09:06:10.145Z,89440
2018-04-17T09:07:11.547Z,91648
2018-04-17T09:08:12.919Z,92448
2018-04-17T09:09:14.293Z,93056
2018-04-17T09:10:15.675Z,92608
2018-04-17T09:11:17.054Z,92768
2018-04-17T09:12:18.449Z,92992
2018-04-17T09:13:19.838Z,93216
2018-04-17T09:14:21.212Z,93632
2018-04-17T09:15:22.606Z,93856
2018-04-17T09:16:24.008Z,92800
2018-04-17T09:17:25.419Z,93920
2018-04-17T09:18:26.808Z,94912
2018-04-17T09:19:28.193Z,95584
2018-04-17T09:20:29.590Z,96832
2018-04-17T09:21:30.973Z,96480
2018-04-17T09:22:32.359Z,97792
2018-04-17T09:23:33.746Z,97856
2018-04-17T09:24:35.136Z,93632
2018-04-17T09:25:36.536Z,95168
2018-04-17T09:26:37.920Z,98464
2018-04-17T09:27:39.304Z,100672
2018-04-17T09:28:40.703Z,101856
2018-04-17T09:29:42.089Z,100320
2018-04-17T09:30:43.475Z,100960
2018-04-17T09:31:44.870Z,100160
2018-04-17T09:32:46.254Z,100256
2018-04-17T09:33:47.636Z,96608
2018-04-17T09:34:49.019Z,92448
2018-04-17T09:35:50.404Z,88128
2018-04-17T09:36:51.786Z,89280
2018-04-17T09:37:53.173Z,97152
2018-04-17T09:38:54.584Z,104544
2018-04-17T09:39:55.964Z,103776
2018-04-17T09:40:58.054Z,104320
2018-04-17T09:41:59.428Z,103232
2018-04-17T09:43:00.824Z,102656
2018-04-17T09:44:02.210Z,102752
2018-04-17T09:45:03.608Z,103616
2018-04-17T09:46:05.000Z,102400
2018-04-17T09:47:06.385Z,102400
2018-04-17T09:48:07.777Z,103136
2018-04-17T09:49:09.181Z,100352
2018-04-17T09:50:10.579Z,98976
2018-04-17T09:51:11.970Z,100928
2018-04-17T09:52:13.383Z,103968
2018-04-17T09:53:14.776Z,104384
2018-04-17T09:54:16.170Z,102624
2018-04-17T09:55:17.562Z,101056
2018-04-17T09:56:18.941Z,100640
2018-04-17T09:57:20.327Z,99008
2018-04-17T09:58:21.712Z,97344
2018-04-17T09:59:23.111Z,100064
2018-04-17T10:00:24.513Z,103680
2018-04-17T10:01:25.898Z,99168
2018-04-17T10:02:27.278Z,92608
2018-04-17T10:03:28.683Z,91424
2018-04-17T10:04:30.079Z,96704
2018-04-17T10:05:31.460Z,101280
2018-04-17T10:06:32.860Z,100032
2018-04-17T10:07:34.240Z,101120
2018-04-17T10:08:35.637Z,101408
2018-04-17T10:09:37.038Z,100032
2018-04-17T10:10:38.425Z,98304
2018-04-17T10:11:39.814Z,99584
2018-04-17T10:12:41.209Z,101568
2018-04-17T10:13:42.602Z,102528
2018-04-17T10:14:43.993Z,101824
2018-04-17T10:15:45.384Z,99776
2018-04-17T10:16:46.781Z,99616
2018-04-17T10:17:48.169Z,101632
2018-04-17T10:18:49.551Z,103808
2018-04-17T10:19:50.946Z,102528
2018-04-17T10:20:52.334Z,101536
2018-04-17T10:21:53.739Z,101952
2018-04-17T10:22:55.128Z,102464
2018-04-17T10:23:56.573Z,101408
2018-04-17T10:24:57.958Z,99648
2018-04-17T10:25:59.363Z,99168
2018-04-17T10:27:00.768Z,100288
2018-04-17T10:28:02.183Z,98944
2018-04-17T10:29:03.594Z,98816
2018-04-17T10:30:05.019Z,100192
2018-04-17T10:31:06.395Z,100224
2018-04-17T10:32:07.791Z,100064
2018-04-17T10:33:09.184Z,99584
2018-04-17T10:34:10.594Z,99168
2018-04-17T10:35:11.977Z,98528
2018-04-17T10:36:13.376Z,99232
2018-04-17T10:37:14.766Z,99744
2018-04-17T10:38:16.155Z,99168
2018-04-17T10:39:18.210Z,97504
2018-04-17T10:40:19.597Z,97312
2018-04-17T10:41:20.986Z,98400
2018-04-17T10:42:22.377Z,97376
2018-04-17T10:43:23.764Z,96256
2018-04-17T10:44:25.148Z,96256
2018-04-17T10:45:26.551Z,94752
2018-04-17T10:46:27.954Z,95008
2018-04-17T10:47:29.360Z,96704
2018-04-17T10:48:30.747Z,99328
2018-04-17T10:49:32.141Z,101024
2018-04-17T10:50:33.564Z,102784
2018-04-17T10:51:34.933Z,102176
2018-04-17T10:52:36.331Z,100288
2018-04-17T10:53:37.743Z,97760
2018-04-17T10:54:39.131Z,96896
2018-04-17T10:55:40.554Z,99200
2018-04-17T10:56:42.038Z,100352
2018-04-17T10:57:43.349Z,101920
2018-04-17T10:58:44.747Z,100544
2018-04-17T10:59:46.186Z,101120
2018-04-17T11:00:47.523Z,100160
2018-04-17T11:01:48.937Z,100288
2018-04-17T11:02:50.324Z,99904
2018-04-17T11:03:51.708Z,99744
2018-04-17T11:04:53.141Z,100000
2018-04-17T11:05:54.780Z,99872
2018-04-17T11:06:56.186Z,98304
2018-04-17T11:07:57.566Z,98432
2018-04-17T11:08:58.965Z,94304
2018-04-17T11:10:00.382Z,93024
2018-04-17T11:11:01.762Z,89536
2018-04-17T11:12:03.149Z,90912
2018-04-17T11:13:04.539Z,93920
2018-04-17T11:14:05.929Z,97216
2018-04-17T11:15:07.307Z,96800
2018-04-17T11:16:08.700Z,95616
2018-04-17T11:17:10.923Z,97408
2018-04-17T11:18:12.314Z,100384
2018-04-17T11:19:13.698Z,100320
2018-04-17T11:20:15.087Z,98208
2018-04-17T11:21:16.473Z,95424
2018-04-17T11:22:17.863Z,96128
2018-04-17T11:23:19.258Z,95840
2018-04-17T11:24:20.645Z,97504
2018-04-17T11:25:22.031Z,98080
2018-04-17T11:26:23.421Z,98784
2018-04-17T11:27:24.811Z,99072
2018-04-17T11:28:26.203Z,96832
2018-04-17T11:29:27.590Z,91936
2018-04-17T11:30:28.980Z,86816
2018-04-17T11:31:30.369Z,85696
2018-04-17T11:32:31.759Z,88128
2018-04-17T11:33:33.150Z,92224
2018-04-17T11:34:34.571Z,89408
2018-04-17T11:35:35.955Z,86912
2018-04-17T11:36:37.336Z,85696
2018-04-17T11:37:38.741Z,89504
2018-04-17T11:38:40.146Z,92704
2018-04-17T11:39:41.750Z,93984
2018-04-17T11:40:43.242Z,93088
2018-04-17T11:41:44.644Z,90176
2018-04-17T11:42:46.048Z,88192
2018-04-17T11:43:47.464Z,88800
2018-04-17T11:44:48.844Z,91296
2018-04-17T11:45:50.230Z,89440
2018-04-17T11:46:51.819Z,89344
2018-04-17T11:47:53.489Z,87232
2018-04-17T11:48:55.014Z,86496
2018-04-17T11:49:56.542Z,85408
2018-04-17T11:50:57.967Z,87360
2018-04-17T11:51:59.360Z,88864
2018-04-17T11:53:00.746Z,90368
2018-04-17T11:54:02.136Z,89184
2018-04-17T11:55:03.525Z,86336
2018-04-17T11:56:04.905Z,85024
2018-04-17T11:57:06.292Z,84224
2018-04-17T11:58:07.685Z,84288
2018-04-17T11:59:09.084Z,83776
2018-04-17T12:00:10.473Z,83136
2018-04-17T12:01:11.957Z,83840
2018-04-17T12:02:13.344Z,84896
2018-04-17T12:03:14.743Z,86144
2018-04-17T12:04:16.151Z,87136
2018-04-17T12:05:17.569Z,86752
2018-04-17T12:06:18.970Z,87456
2018-04-17T12:07:20.412Z,87872
2018-04-17T12:08:21.893Z,88064
2018-04-17T12:09:23.352Z,87968
2018-04-17T12:10:24.831Z,86912
2018-04-17T12:11:26.264Z,85504
2018-04-17T12:12:27.660Z,85408
2018-04-17T12:13:29.136Z,85504
2018-04-17T12:14:30.695Z,87712
2018-04-17T12:15:32.130Z,87488
2018-04-17T12:16:33.549Z,85376
2018-04-17T12:17:34.936Z,83872
2018-04-17T12:18:36.350Z,84544
2018-04-17T12:19:38.339Z,86752
2018-04-17T12:20:39.730Z,82272
2018-04-17T12:21:41.131Z,78848
2018-04-17T12:22:42.530Z,80384
2018-04-17T12:23:44.147Z,76128
2018-04-17T12:24:45.583Z,82080
2018-04-17T12:25:46.981Z,81824
2018-04-17T12:26:48.370Z,81696
2018-04-17T12:27:49.754Z,84128
2018-04-17T12:28:51.147Z,86976
2018-04-17T12:29:52.542Z,88096
2018-04-17T12:30:53.934Z,89536
2018-04-17T12:31:55.321Z,88256
2018-04-17T12:32:56.779Z,89152
2018-04-17T12:33:58.119Z,89696
2018-04-17T12:34:59.520Z,91392
2018-04-17T12:36:01.030Z,90720
2018-04-17T12:37:02.720Z,91328
2018-04-17T12:38:04.162Z,91936
2018-04-17T12:39:05.590Z,92000
2018-04-17T12:40:06.987Z,88704
2018-04-17T12:41:08.399Z,87392
2018-04-17T12:42:09.795Z,87808
2018-04-17T12:43:11.194Z,90624
2018-04-17T12:44:12.642Z,90592
2018-04-17T12:45:14.019Z,90784
2018-04-17T12:46:15.407Z,90848
2018-04-17T12:47:16.810Z,93120
2018-04-17T12:48:18.221Z,94496
2018-04-17T12:49:19.598Z,93664
2018-04-17T12:50:21.003Z,93632
2018-04-17T12:51:22.395Z,91392
2018-04-17T12:52:23.867Z,89024
2018-04-17T12:53:25.259Z,68352
2018-04-17T12:54:26.681Z,91904
2018-04-17T12:55:28.086Z,95200
2018-04-17T12:56:29.489Z,94528
2018-04-17T12:57:30.907Z,95232
2018-04-17T12:58:32.312Z,95968
2018-04-17T12:59:33.724Z,94656
2018-04-17T13:00:35.115Z,93184
2018-04-17T13:01:36.679Z,92128
2018-04-17T13:02:38.070Z,91904
2018-04-17T13:03:39.467Z,91808
2018-04-17T13:04:40.928Z,92384
2018-04-17T13:05:42.350Z,93408
2018-04-17T13:06:43.820Z,91968
2018-04-17T13:07:45.256Z,88480
2018-04-17T13:08:46.614Z,86048
2018-04-17T13:09:48.001Z,87264
2018-04-17T13:10:49.441Z,89248
2018-04-17T13:11:50.889Z,88672
2018-04-17T13:12:52.963Z,88064
2018-04-17T13:13:54.402Z,87840
2018-04-17T13:14:55.933Z,86496
2018-04-17T13:15:57.441Z,85856
2018-04-17T13:16:58.897Z,85984
2018-04-17T13:18:00.324Z,86272
2018-04-17T13:19:01.752Z,87232
2018-04-17T13:20:04.019Z,86560
2018-04-17T13:21:05.397Z,84640
2018-04-17T13:22:06.799Z,84096
2018-04-17T13:23:08.195Z,81728
2018-04-17T13:24:09.580Z,81248
2018-04-17T13:25:10.973Z,81696
2018-04-17T13:26:12.364Z,82944
2018-04-17T13:27:13.782Z,83424
2018-04-17T13:28:15.198Z,80992
2018-04-17T13:29:16.651Z,79040
2018-04-17T13:30:18.703Z,80032
2018-04-17T13:31:20.105Z,81120
2018-04-17T13:32:21.513Z,81184
2018-04-17T13:33:22.948Z,79168
2018-04-17T13:34:24.381Z,80032
2018-04-17T13:35:25.832Z,80064
2018-04-17T13:36:27.232Z,81344
2018-04-17T13:37:28.644Z,81440
2018-04-17T13:38:30.021Z,77504
2018-04-17T13:39:31.540Z,75136
2018-04-17T13:40:32.926Z,75808
2018-04-17T13:41:34.303Z,78080
2018-04-17T13:42:35.700Z,79104
2018-04-17T13:43:37.109Z,79328
2018-04-17T13:44:38.501Z,79520
2018-04-17T13:45:39.913Z,77280
2018-04-17T13:46:41.302Z,74592